createdAt,value
2022-08-02T00:02:05.094Z,63.07
2022-08-02T00:04:53.724Z,63.71
2022-08-02T00:07:41.661Z,65.78
2022-08-02T01:04:30.688Z,65.84
2022-08-02T01:07:18.632Z,66.83
2022-08-02T01:10:06.238Z,68.76
2022-08-02T01:12:53.303Z,69.72
2022-08-02T01:15:44.416Z,65.66
2022-08-02T01:18:36.610Z,65.63
2022-08-02T01:21:36.832Z,65.29
2022-08-02T01:24:41.141Z,66.93
2022-08-02T01:27:36.787Z,67.87
2022-08-02T01:30:23.250Z,68.17
2022-08-02T01:33:11.242Z,67.33
2022-08-02T01:35:59.123Z,67.29
2022-08-02T01:38:48.883Z,65.94
2022-08-02T01:41:36.130Z,65.70
2022-08-02T01:44:27.585Z,65.54
2022-08-02T01:47:19.428Z,65.81
2022-08-02T01:50:06.475Z,70.34
2022-08-02T01:52:56.705Z,72.85
2022-08-02T01:55:57.934Z,73.46
2022-08-02T01:58:46.023Z,75.07
2022-08-02T02:01:33.748Z,74.36
2022-08-02T02:04:22.736Z,77.05
2022-08-02T02:07:09.531Z,75.05
2022-08-02T02:09:56.895Z,75.24
2022-08-02T02:12:48.389Z,72.00
2022-08-02T02:15:35.916Z,73.12
2022-08-02T02:18:28.381Z,70.24
2022-08-02T02:21:15.283Z,69.60
2022-08-02T02:24:01.756Z,69.40
2022-08-02T02:26:52.329Z,68.31
2022-08-02T02:29:44.474Z,68.97
2022-08-02T02:32:31.726Z,68.81
2022-08-02T02:35:18.666Z,69.50
2022-08-02T02:38:14.721Z,68.91
2022-08-02T02:41:03.532Z,69.47
2022-08-02T02:43:50.966Z,70.04
2022-08-02T02:46:38.151Z,71.60
2022-08-02T02:49:25.718Z,71.66
2022-08-02T02:52:14.486Z,75.87
2022-08-02T02:55:02.123Z,76.46
2022-08-02T02:57:49.035Z,80.03
2022-08-02T03:00:54.310Z,81.62
2022-08-02T03:03:40.477Z,82.94
2022-08-02T03:06:28.646Z,80.84
2022-08-02T03:09:14.892Z,81.29
2022-08-02T03:12:01.603Z,80.21
2022-08-02T03:14:49.467Z,78.24
2022-08-02T03:17:44.333Z,83.32
2022-08-02T03:20:30.555Z,79.40
2022-08-02T03:23:16.841Z,86.31
2022-08-02T03:26:03.758Z,87.82
2022-08-02T03:28:51.033Z,84.58
2022-08-02T03:31:41.039Z,82.78
2022-08-02T03:34:28.208Z,80.41
2022-08-02T03:37:15.813Z,84.68
2022-08-02T03:40:03.938Z,81.83
2022-08-02T03:42:50.857Z,77.45
2022-08-02T03:45:48.025Z,77.53
2022-08-02T03:48:37.040Z,79.45
2022-08-02T03:51:24.537Z,79.89
2022-08-02T03:54:11.865Z,76.78
2022-08-02T03:56:58.597Z,74.36
2022-08-02T03:59:46.232Z,73.54
2022-08-02T04:02:32.475Z,74.48
2022-08-02T04:05:19.666Z,79.81
2022-08-02T04:08:36.031Z,78.92
2022-08-02T04:11:32.731Z,76.48
2022-08-02T04:14:19.988Z,74.07
2022-08-02T04:17:09.049Z,73.53
2022-08-02T04:20:05.945Z,74.97
2022-08-02T04:23:02.308Z,74.35
2022-08-02T04:25:51.468Z,75.34
2022-08-02T04:28:38.141Z,75.09
2022-08-02T04:31:25.294Z,72.88
2022-08-02T04:34:15.449Z,74.77
2022-08-02T04:37:02.772Z,78.10
2022-08-02T04:39:50.282Z,85.87
2022-08-02T04:42:36.609Z,80.43
2022-08-02T04:45:23.753Z,76.82
2022-08-02T04:48:10.903Z,77.13
2022-08-02T04:50:57.646Z,82.82
2022-08-02T04:53:45.417Z,85.24
2022-08-02T04:56:35.946Z,84.88
2022-08-02T04:59:23.162Z,84.14
2022-08-02T05:02:10.946Z,84.72
2022-08-02T05:04:57.586Z,87.09
2022-08-02T05:07:44.370Z,82.80
2022-08-02T05:10:31.139Z,81.07
2022-08-02T05:13:17.547Z,77.12
2022-08-02T05:16:04.807Z,78.29
2022-08-02T05:18:51.939Z,75.91
2022-08-02T05:21:38.178Z,73.98
2022-08-02T05:24:25.553Z,74.10
2022-08-02T05:27:21.200Z,73.67
2022-08-02T05:30:09.824Z,72.44
2022-08-02T05:32:57.655Z,78.95
2022-08-02T05:35:47.732Z,77.16
2022-08-02T05:38:36.784Z,79.79
2022-08-02T05:41:24.368Z,76.62
2022-08-02T05:44:13.366Z,70.97
2022-08-02T05:47:00.535Z,71.14
2022-08-02T05:49:47.951Z,68.80
2022-08-02T05:52:49.744Z,67.96
2022-08-02T05:56:11.092Z,66.78
2022-08-02T05:59:12.927Z,65.63
2022-08-02T06:02:04.886Z,65.65
2022-08-02T06:05:01.770Z,68.66
2022-08-02T06:07:53.181Z,63.37
2022-08-02T06:10:40.648Z,63.78
2022-08-02T06:13:28.979Z,62.46
2022-08-02T06:16:16.206Z,61.35
2022-08-02T06:19:05.574Z,59.78
2022-08-02T06:22:31.402Z,59.89
2022-08-02T06:25:00.128Z,57.78
2022-08-02T06:27:50.761Z,57.43
2022-08-02T06:30:37.816Z,57.37
2022-08-02T06:33:25.096Z,59.23
2022-08-02T06:36:27.831Z,61.18
2022-08-02T06:39:28.148Z,57.86
2022-08-02T06:42:27.290Z,58.35
2022-08-02T06:45:22.908Z,56.53
2022-08-02T06:48:10.021Z,57.42
2022-08-02T06:50:57.236Z,55.97
2022-08-02T06:53:45.670Z,58.84
2022-08-02T06:56:32.782Z,56.36
2022-08-02T06:59:20.173Z,55.78
2022-08-02T07:02:06.786Z,54.51
2022-08-02T07:04:53.734Z,52.60
2022-08-02T07:07:41.526Z,53.74
2022-08-02T07:10:29.746Z,51.53
2022-08-02T07:13:16.253Z,52.21
2022-08-02T07:16:06.004Z,50.93
2022-08-02T07:18:54.747Z,50.38
2022-08-02T07:21:56.690Z,50.08
2022-08-02T07:24:47.812Z,49.34
2022-08-02T07:27:34.611Z,48.48
2022-08-02T07:30:25.399Z,46.00
2022-08-02T07:33:38.119Z,48.90
2022-08-02T07:36:22.801Z,46.12
2022-08-02T07:39:12.666Z,48.48
2022-08-02T07:42:00.310Z,48.09
2022-08-02T07:44:49.316Z,47.19
2022-08-02T07:47:44.051Z,46.15
2022-08-02T07:50:46.865Z,46.52
2022-08-02T07:53:50.787Z,45.41
2022-08-02T07:56:44.778Z,47.36
2022-08-02T07:59:32.809Z,47.09
2022-08-02T08:02:24.767Z,47.20
2022-08-02T08:05:12.786Z,46.14
2022-08-02T08:07:59.877Z,43.85
2022-08-02T08:10:47.497Z,44.94
2022-08-02T08:13:33.958Z,43.65
2022-08-02T08:16:26.404Z,44.51
2022-08-02T08:19:14.847Z,46.56
2022-08-02T08:22:01.973Z,44.38
2022-08-02T08:24:50.553Z,43.71
2022-08-02T08:27:38.205Z,42.97
2022-08-02T08:30:27.203Z,40.64
2022-08-02T08:33:17.440Z,40.34
2022-08-02T08:36:05.801Z,40.32
2022-08-02T08:38:52.944Z,39.80
2022-08-02T08:41:43.776Z,39.96
2022-08-02T08:44:30.899Z,39.99
2022-08-02T08:47:20.077Z,37.54
2022-08-02T08:50:25.758Z,39.10
2022-08-02T08:53:14.871Z,37.59
2022-08-02T08:56:02.827Z,37.94
2022-08-02T08:58:53.362Z,37.67
2022-08-02T09:01:50.215Z,37.58
2022-08-02T09:04:38.159Z,34.62
2022-08-02T09:07:37.065Z,35.44
2022-08-02T09:10:45.058Z,34.90
2022-08-02T09:13:45.820Z,34.97
2022-08-02T09:16:34.442Z,33.43
2022-08-02T09:19:29.744Z,34.22
2022-08-02T09:22:18.676Z,33.24
2022-08-02T09:25:15.527Z,33.30
2022-08-02T09:28:06.906Z,32.66
2022-08-02T09:30:56.913Z,33.42
2022-08-02T09:33:56.002Z,32.36
2022-08-02T09:36:47.052Z,32.81
2022-08-02T09:39:47.723Z,33.35
2022-08-02T09:42:37.613Z,33.34
2022-08-02T09:45:30.471Z,32.05
2022-08-02T09:48:18.896Z,31.38
2022-08-02T09:51:12.430Z,32.30
2022-08-02T09:54:09.363Z,32.08
2022-08-02T09:57:01.850Z,32.40
2022-08-02T09:59:54.812Z,30.93
2022-08-02T10:03:08.300Z,33.24
2022-08-02T10:06:03.336Z,33.01
2022-08-02T10:08:53.806Z,33.58
2022-08-02T10:11:56.083Z,34.32
2022-08-02T10:14:43.907Z,34.77
2022-08-02T10:17:36.858Z,35.32
2022-08-02T10:20:23.824Z,38.11
2022-08-02T10:23:11.721Z,38.71
2022-08-02T10:26:06.805Z,38.39
2022-08-02T10:28:57.471Z,38.03
2022-08-02T10:31:55.275Z,37.81
2022-08-02T10:35:19.149Z,36.18
2022-08-02T10:38:12.745Z,35.40
2022-08-02T10:40:59.972Z,34.76
2022-08-02T10:43:57.233Z,33.90
2022-08-02T10:46:52.836Z,32.91
2022-08-02T10:49:56.418Z,35.30
2022-08-02T10:52:43.791Z,34.20
2022-08-02T10:55:46.093Z,36.10
2022-08-02T10:58:36.835Z,36.72
2022-08-02T11:01:38.804Z,36.09
2022-08-02T11:04:31.053Z,36.06
2022-08-02T11:07:19.393Z,37.60
2022-08-02T11:10:37.877Z,36.41
2022-08-02T11:13:26.618Z,37.19
2022-08-02T11:16:15.808Z,35.67
2022-08-02T11:19:03.891Z,34.59
2022-08-02T11:22:02.315Z,35.47
2022-08-02T11:24:51.240Z,38.07
2022-08-02T11:27:38.932Z,36.48
2022-08-02T11:30:33.840Z,37.41
2022-08-02T11:33:31.250Z,37.64
2022-08-02T11:36:21.120Z,37.98
2022-08-02T11:39:23.490Z,35.94
2022-08-02T11:42:13.169Z,33.88
2022-08-02T11:45:01.768Z,32.59
2022-08-02T11:47:51.673Z,32.07
2022-08-02T11:50:45.870Z,30.49
2022-08-02T11:53:41.654Z,31.05
2022-08-02T11:56:35.769Z,33.57
2022-08-02T11:59:28.196Z,33.22
2022-08-02T12:02:21.763Z,35.03
2022-08-02T12:05:12.012Z,36.15
2022-08-02T12:08:00.918Z,36.04
2022-08-02T12:10:58.015Z,37.29
2022-08-02T12:13:57.098Z,36.42
2022-08-02T12:17:04.840Z,35.45
2022-08-02T12:19:52.148Z,35.78
2022-08-02T12:22:43.232Z,35.77
2022-08-02T12:25:35.546Z,36.08
2022-08-02T12:28:26.835Z,35.93
2022-08-02T12:31:18.090Z,35.24
2022-08-02T12:34:17.047Z,33.91
2022-08-02T12:37:09.770Z,32.70
2022-08-02T12:40:26.154Z,32.95
2022-08-02T12:43:20.319Z,30.85
2022-08-02T12:46:16.868Z,30.24
2022-08-02T12:49:19.918Z,33.20
2022-08-02T12:52:25.192Z,33.22
2022-08-02T12:55:26.002Z,30.67
2022-08-02T12:58:54.712Z,30.78
2022-08-02T13:01:42.911Z,31.14
2022-08-02T13:04:34.910Z,30.76
2022-08-02T13:07:22.416Z,29.79
2022-08-02T13:10:11.001Z,28.95
2022-08-02T13:13:03.638Z,28.60
2022-08-02T13:15:51.647Z,26.97
2022-08-02T13:18:40.599Z,26.77
2022-08-02T13:21:41.503Z,28.14
2022-08-02T13:24:55.638Z,28.36
2022-08-02T13:27:46.054Z,26.58
2022-08-02T13:30:39.324Z,26.04
2022-08-02T13:33:34.883Z,25.91
2022-08-02T13:36:39.191Z,26.24
2022-08-02T13:39:28.037Z,28.92
2022-08-02T13:42:17.721Z,28.01
2022-08-02T13:45:17.836Z,28.97
2022-08-02T13:48:17.067Z,28.81
2022-08-02T13:51:11.932Z,27.77
2022-08-02T13:54:04.754Z,27.88
2022-08-02T13:56:58.342Z,29.47
2022-08-02T13:59:58.334Z,28.31
2022-08-02T14:02:54.846Z,27.65
2022-08-02T14:05:47.304Z,28.11
2022-08-02T14:08:35.564Z,28.81
2022-08-02T14:11:25.562Z,27.90
2022-08-02T14:14:17.250Z,28.83
2022-08-02T14:17:06.073Z,27.89
2022-08-02T14:20:06.930Z,27.53
2022-08-02T14:23:01.851Z,27.17
2022-08-02T14:25:54.990Z,26.85
2022-08-02T14:28:44.936Z,26.63
2022-08-02T14:34:44.313Z,27.41
2022-08-02T14:37:33.096Z,27.84
2022-08-02T14:43:23.020Z,26.75
2022-08-02T14:46:19.862Z,27.21
2022-08-02T14:49:12.128Z,26.73
2022-08-02T14:52:08.227Z,28.51
2022-08-02T14:54:59.897Z,29.16
2022-08-02T14:57:49.634Z,29.47
2022-08-02T15:00:41.141Z,29.23
2022-08-02T15:03:43.277Z,28.95
2022-08-02T15:06:37.822Z,29.06
2022-08-02T15:09:27.870Z,29.38
2022-08-02T15:12:19.123Z,31.20
2022-08-02T15:15:12.865Z,30.33
2022-08-02T15:18:02.108Z,30.44
2022-08-02T15:21:06.402Z,29.46
2022-08-02T15:27:19.103Z,29.83
2022-08-02T15:30:09.859Z,28.86
2022-08-02T15:32:56.606Z,29.15
2022-08-02T15:35:45.131Z,29.16
2022-08-02T15:38:33.170Z,29.84
2022-08-02T15:41:35.887Z,28.83
2022-08-02T15:44:29.937Z,28.64
2022-08-02T15:47:24.851Z,28.54
2022-08-02T15:50:13.015Z,29.59
2022-08-02T15:53:01.123Z,29.15
2022-08-02T15:55:52.648Z,28.14
2022-08-02T15:59:02.976Z,27.56
2022-08-02T16:01:55.910Z,26.48
2022-08-02T16:04:43.259Z,27.41
2022-08-02T16:07:31.969Z,28.01
2022-08-02T16:10:20.831Z,27.65
2022-08-02T16:13:54.045Z,27.38
2022-08-02T16:19:49.103Z,27.17
2022-08-02T16:22:38.758Z,27.80
2022-08-02T16:25:29.017Z,27.13
2022-08-02T16:28:16.450Z,28.77
2022-08-02T16:31:11.257Z,28.02
2022-08-02T16:34:01.361Z,28.19
2022-08-02T16:36:50.901Z,28.74
2022-08-02T16:39:52.088Z,28.34
2022-08-02T16:42:50.734Z,28.24
2022-08-02T16:45:46.859Z,27.94
2022-08-02T16:48:33.915Z,27.22
2022-08-02T16:51:28.873Z,26.96
2022-08-02T16:54:23.378Z,27.87
2022-08-02T16:57:15.175Z,27.22
2022-08-02T17:00:12.577Z,26.89
2022-08-02T17:10:02.596Z,26.27
2022-08-02T17:12:24.107Z,26.28
2022-08-02T17:16:01.662Z,27.29
2022-08-02T17:18:42.500Z,26.81
2022-08-02T17:21:34.090Z,27.68
2022-08-02T17:24:29.655Z,27.01
2022-08-02T17:27:21.126Z,27.04
2022-08-02T17:30:28.092Z,27.23
2022-08-02T17:33:19.113Z,28.01
2022-08-02T17:36:20.428Z,26.54
2022-08-02T17:39:10.485Z,27.53
2022-08-02T17:42:07.992Z,28.55
2022-08-02T17:45:06.852Z,28.00
2022-08-02T17:48:08.181Z,29.45
2022-08-02T17:51:08.096Z,29.79
2022-08-02T17:54:03.365Z,29.44
2022-08-02T17:56:59.928Z,30.27
2022-08-02T18:00:04.401Z,28.86
2022-08-02T18:03:08.015Z,29.43
2022-08-02T18:06:04.839Z,29.88
2022-08-02T18:08:57.982Z,28.81
2022-08-02T18:14:55.278Z,31.63
2022-08-02T18:17:44.722Z,30.24
2022-08-02T18:20:40.950Z,30.67
2022-08-02T18:23:44.198Z,31.36
2022-08-02T18:26:43.351Z,30.05
2022-08-02T18:29:38.667Z,30.40
2022-08-02T18:33:58.318Z,29.46
2022-08-02T18:35:34.922Z,29.75
2022-08-02T18:38:23.216Z,29.21
2022-08-02T18:41:24.925Z,29.45
2022-08-02T18:47:15.664Z,29.40
2022-08-02T18:50:03.511Z,29.96
2022-08-02T18:53:05.127Z,30.68
2022-08-02T18:56:07.253Z,31.05
2022-08-02T18:59:03.917Z,32.54
2022-08-02T19:01:52.205Z,34.03
2022-08-02T19:04:54.327Z,32.35
2022-08-02T19:07:49.841Z,30.88
2022-08-02T19:10:49.988Z,32.49
2022-08-02T19:13:49.998Z,33.21
2022-08-02T19:16:44.973Z,32.79
2022-08-02T19:19:42.462Z,33.71
2022-08-02T19:22:53.709Z,33.49
2022-08-02T19:25:50.371Z,35.33
2022-08-02T19:28:50.062Z,34.47
2022-08-02T19:31:59.860Z,34.68
2022-08-02T19:35:19.968Z,34.91
2022-08-02T19:38:20.563Z,34.42
2022-08-02T19:44:29.335Z,34.80
2022-08-02T19:47:20.495Z,35.65
2022-08-02T19:50:17.948Z,35.51
2022-08-02T19:53:23.901Z,36.29
2022-08-02T19:59:24.927Z,40.46
2022-08-02T20:02:33.002Z,39.53
2022-08-02T20:05:26.784Z,39.43
2022-08-02T20:08:31.734Z,39.11
2022-08-02T20:11:27.791Z,36.93
2022-08-02T20:14:27.540Z,37.32
2022-08-02T20:17:16.332Z,38.48
2022-08-02T20:20:08.624Z,38.19
2022-08-02T20:23:33.590Z,38.85
2022-08-02T20:26:33.301Z,39.33
2022-08-02T20:29:42.499Z,40.24
2022-08-02T20:32:40.067Z,39.12
2022-08-02T20:35:40.895Z,38.69
2022-08-02T20:38:38.919Z,39.40
2022-08-02T20:41:36.499Z,40.49
2022-08-02T20:44:38.146Z,40.40
2022-08-02T20:47:39.438Z,40.14
2022-08-02T20:50:49.305Z,40.25
2022-08-02T20:53:54.804Z,41.06
2022-08-02T20:56:45.051Z,41.27
2022-08-02T20:59:40.830Z,40.09
2022-08-02T21:02:29.959Z,39.69
2022-08-02T21:05:18.296Z,39.80
2022-08-02T21:08:07.941Z,42.14
2022-08-02T21:11:01.468Z,40.87
2022-08-02T21:14:07.360Z,41.64
2022-08-02T21:16:55.561Z,42.83
2022-08-02T21:19:44.124Z,42.06
2022-08-02T21:22:31.439Z,41.83
2022-08-02T21:25:42.386Z,42.88
2022-08-02T21:28:35.135Z,41.88
2022-08-02T21:31:35.871Z,43.04
2022-08-02T21:34:30.262Z,44.78
2022-08-02T21:37:17.617Z,45.98
2022-08-02T21:40:06.060Z,45.53
2022-08-02T21:42:59.060Z,44.40
2022-08-02T21:45:53.544Z,44.51
2022-08-02T21:48:42.434Z,44.71
2022-08-02T21:51:34.179Z,45.71
2022-08-02T21:54:22.164Z,45.42
2022-08-02T21:57:15.128Z,46.52
2022-08-02T22:00:10.893Z,45.38
2022-08-02T22:02:57.860Z,45.03
2022-08-02T22:05:47.334Z,47.08
2022-08-02T22:08:34.166Z,52.12
2022-08-02T22:11:22.305Z,49.78
2022-08-02T22:14:09.788Z,48.37
2022-08-02T22:16:57.764Z,48.22
2022-08-02T22:19:53.923Z,46.90
2022-08-02T22:22:40.979Z,49.22
2022-08-02T22:25:36.711Z,47.75
2022-08-02T22:28:38.404Z,47.24
2022-08-02T22:31:40.502Z,49.08
2022-08-02T22:34:51.331Z,47.26
2022-08-02T22:38:16.976Z,47.63
2022-08-02T22:40:44.509Z,48.20
2022-08-02T22:43:33.190Z,49.70
2022-08-02T22:46:20.364Z,48.39
2022-08-02T22:49:37.218Z,47.70
2022-08-02T22:52:21.031Z,48.39
2022-08-02T22:55:10.193Z,50.54
2022-08-02T22:58:00.093Z,49.95
2022-08-02T22:58:50.938Z,27.57
2022-08-02T23:00:47.006Z,49.76
2022-08-02T23:03:34.352Z,49.89
2022-08-02T23:06:22.930Z,49.87
2022-08-02T23:09:09.348Z,50.54
2022-08-02T23:11:55.621Z,52.02
2022-08-02T23:14:42.032Z,51.81
2022-08-02T23:17:47.962Z,52.50
2022-08-02T23:20:34.976Z,53.65
2022-08-02T23:23:22.553Z,54.19
2022-08-02T23:26:09.871Z,55.12
2022-08-02T23:28:56.994Z,54.16
2022-08-02T23:31:43.986Z,55.35
2022-08-02T23:34:31.453Z,54.35
2022-08-02T23:37:18.873Z,57.55
2022-08-02T23:40:07.784Z,57.20
2022-08-02T23:42:54.381Z,56.42
2022-08-02T23:45:41.202Z,54.71
2022-08-02T23:48:27.538Z,55.16
2022-08-02T23:51:15.649Z,54.74
2022-08-02T23:54:08.108Z,55.14
2022-08-02T23:56:55.769Z,55.62
2022-08-02T23:59:46.364Z,57.09
